^^
Station Historical Data
Daily Summary for August 23, 2017 Units:  English    Metric   Both
« Previous Day
Next Day »
Daily Weekly Monthly Yearly Custom
  High: Low: Average:
Temperature: 80.5 °F 63.2 °F 73.4 °F
Dew Point: 70.7 °F 55.0 °F 61.8 °F
Humidity: 97% 44% 70%
Wind Speed: 7.0mph 0.0mph 1.5mph
Wind Gust: 21.0mph - -
Wind- - SSW
Pressure: 29.88 in 29.74 in -
Precipitation: 0.14 in    
Historical Graphs
 
 
Tabular Data for August 23, 2017
Time Temperature Dew Point Pressure Wind Wind Speed Wind Gust Humidity Rainfall Rate (Hourly) Conditions
00:00 73.0 °F 69.9 °F 29.79 in SSW 6.0 mph 21.0 mph 90% 0.03 in RA
00:15 72.1 °F 69.6 °F 29.80 in SSW 6.0 mph 15.0 mph 92% 0.03 in RA
00:30 71.6 °F 69.7 °F 29.79 in SSW 7.0 mph 15.0 mph 94% 0.03 in RA
00:45 71.4 °F 69.9 °F 29.78 in SSW 5.0 mph 12.0 mph 95% 0.04 in RA
01:00 71.2 °F 69.7 °F 29.77 in SSW 3.0 mph 14.0 mph 95% 0.04 in RA
02:15 70.9 °F 69.7 °F 29.75 in SSW 2.0 mph 8.0 mph 96% 0.00 in BKN
02:30 70.9 °F 69.7 °F 29.75 in SSW 3.0 mph 9.0 mph 96% 0.00 in BKN
02:45 71.0 °F 69.8 °F 29.75 in Calm   7.0 mph 96% 0.00 in BKN
03:00 71.2 °F 70.0 °F 29.75 in South 6.0 mph 8.0 mph 96% 0.00 in BKN
03:15 71.3 °F 70.1 °F 29.75 in South 2.0 mph 10.0 mph 96% 0.00 in BKN
03:30 71.3 °F 70.1 °F 29.74 in SSW 1.0 mph 9.0 mph 96% 0.00 in BKN
03:45 71.4 °F 70.5 °F 29.75 in SSW 2.0 mph 9.0 mph 97% 0.00 in BKN
04:00 71.4 °F 70.5 °F 29.74 in South 2.0 mph 5.0 mph 97% 0.00 in BKN
04:15 71.5 °F 70.6 °F 29.74 in Calm   6.0 mph 97% 0.00 in OVC
04:30 71.6 °F 70.7 °F 29.75 in SSW 1.0 mph 5.0 mph 97% 0.00 in OVC
04:45 71.6 °F 70.7 °F 29.75 in South 2.0 mph 6.0 mph 97% 0.00 in OVC
05:00 71.6 °F 70.7 °F 29.76 in SW 2.0 mph 8.0 mph 97% 0.00 in OVC
05:15 71.6 °F 70.7 °F 29.75 in Calm   5.0 mph 97% 0.00 in -RA
05:30 71.6 °F 70.7 °F 29.76 in Calm   5.0 mph 97% 0.00 in -RA
05:45 71.6 °F 70.7 °F 29.75 in Calm   4.0 mph 97% 0.00 in -RA
06:00 71.5 °F 70.6 °F 29.76 in SW 1.0 mph 4.0 mph 97% 0.00 in -RA
06:15 71.4 °F 70.5 °F 29.77 in Calm   4.0 mph 97% 0.00 in BKN
06:30 71.3 °F 70.4 °F 29.77 in SW 2.0 mph 4.0 mph 97% 0.00 in BKN
06:45 71.2 °F 70.3 °F 29.78 in SW 1.0 mph 6.0 mph 97% 0.00 in BKN
07:00 71.2 °F 70.3 °F 29.78 in Calm   5.0 mph 97% 0.00 in BKN
07:15 71.3 °F 70.4 °F 29.78 in Calm   2.0 mph 97% 0.00 in BKN
07:30 70.8 °F 69.6 °F 29.78 in South 1.0 mph 4.0 mph 96% 0.00 in BKN
07:45 69.5 °F 68.0 °F 29.79 in NE 1.0 mph 4.0 mph 95% 0.00 in BKN
08:00 69.0 °F 66.3 °F 29.80 in East 1.0 mph 8.0 mph 91% 0.00 in BKN
08:15 68.8 °F 65.1 °F 29.80 in Calm   7.0 mph 88% 0.00 in BKN
08:30 68.9 °F 64.5 °F 29.81 in Calm   5.0 mph 86% 0.00 in BKN
08:45 69.4 °F 64.3 °F 29.81 in Calm   6.0 mph 84% 0.00 in BKN
09:00 69.9 °F 64.5 °F 29.82 in WNW 1.0 mph 4.0 mph 83% 0.00 in BKN
09:15 69.7 °F 63.6 °F 29.82 in ESE 2.0 mph 7.0 mph 81% 0.00 in BKN
09:30 71.2 °F 63.2 °F 29.82 in NW 2.0 mph 8.0 mph 76% 0.00 in BKN
09:45 72.0 °F 60.9 °F 29.83 in NNW 2.0 mph 8.0 mph 68% 0.00 in BKN
10:00 73.7 °F 60.8 °F 29.83 in NNE 2.0 mph 9.0 mph 64% 0.00 in BKN
10:15 74.3 °F 59.0 °F 29.83 in NW 1.0 mph 8.0 mph 59% 0.00 in CLR
10:30 74.7 °F 58.0 °F 29.84 in WNW 2.0 mph 9.0 mph 56% 0.00 in CLR
10:45 75.3 °F 58.5 °F 29.84 in ENE 1.0 mph 9.0 mph 56% 0.00 in CLR
11:00 75.7 °F 57.3 °F 29.84 in East 3.0 mph 12.0 mph 53% 0.00 in CLR
11:15 75.2 °F 57.4 °F 29.85 in North 2.0 mph 8.0 mph 54% 0.00 in CLR
11:30 75.6 °F 57.3 °F 29.84 in WNW 3.0 mph 9.0 mph 53% 0.00 in CLR
11:45 75.9 °F 56.5 °F 29.84 in NE 1.0 mph 9.0 mph 51% 0.00 in CLR
12:00 76.8 °F 55.0 °F 29.84 in Calm   10.0 mph 47% 0.00 in CLR
12:15 77.5 °F 56.8 °F 29.84 in WNW 3.0 mph 12.0 mph 49% 0.00 in CLR
12:30 77.0 °F 55.2 °F 29.83 in North 2.0 mph 9.0 mph 47% 0.00 in CLR
12:45 76.7 °F 56.7 °F 29.83 in North 5.0 mph 10.0 mph 50% 0.00 in CLR
13:00 77.2 °F 56.6 °F 29.84 in WNW 1.0 mph 8.0 mph 49% 0.00 in CLR
13:15 77.1 °F 57.6 °F 29.84 in NNW 1.0 mph 9.0 mph 51% 0.00 in FEW
13:30 78.0 °F 56.7 °F 29.84 in WNW 1.0 mph 9.0 mph 48% 0.00 in FEW
13:45 79.1 °F 57.1 °F 29.84 in WNW 2.0 mph 6.0 mph 47% 0.00 in FEW
14:00 79.3 °F 57.3 °F 29.84 in West 2.0 mph 6.0 mph 47% 0.00 in FEW
14:15 80.5 °F 56.6 °F 29.84 in South 2.0 mph 9.0 mph 44% 0.00 in FEW
14:30 79.2 °F 56.6 °F 29.84 in NNW 2.0 mph 12.0 mph 46% 0.00 in FEW
14:45 78.9 °F 56.3 °F 29.83 in WNW 2.0 mph 10.0 mph 46% 0.00 in FEW
15:00 78.0 °F 56.7 °F 29.83 in North 5.0 mph 9.0 mph 48% 0.00 in FEW
15:15 77.9 °F 56.0 °F 29.83 in North 3.0 mph 12.0 mph 47% 0.00 in FEW
15:30 77.9 °F 57.2 °F 29.83 in West 1.0 mph 9.0 mph 49% 0.00 in FEW
15:45 78.3 °F 57.6 °F 29.83 in NW 2.0 mph 8.0 mph 49% 0.00 in FEW
16:00 78.3 °F 57.0 °F 29.83 in West 2.0 mph 6.0 mph 48% 0.00 in FEW
16:15 79.0 °F 58.2 °F 29.83 in WSW 1.0 mph 5.0 mph 49% 0.00 in FEW
16:30 79.3 °F 57.9 °F 29.83 in SSE 1.0 mph 7.0 mph 48% 0.00 in FEW
16:45 80.1 °F 58.6 °F 29.83 in West 3.0 mph 7.0 mph 48% 0.00 in FEW
17:15 79.4 °F 56.8 °F 29.83 in SW 1.0 mph 10.0 mph 46% 0.00 in FEW
17:30 79.3 °F 57.3 °F 29.83 in ENE 1.0 mph 7.0 mph 47% 0.00 in FEW
17:45 79.2 °F 57.2 °F 29.83 in North 1.0 mph 7.0 mph 47% 0.00 in FEW
18:00 78.9 °F 56.9 °F 29.83 in NW 3.0 mph 7.0 mph 47% 0.00 in FEW
18:15 79.1 °F 57.1 °F 29.83 in NE 1.0 mph 7.0 mph 47% 0.00 in FEW
18:30 78.0 °F 57.3 °F 29.83 in NNW 2.0 mph 8.0 mph 49% 0.00 in FEW
19:00 77.2 °F 56.5 °F 29.83 in NW 3.0 mph 7.0 mph 49% 0.00 in FEW
19:15 75.8 °F 56.9 °F 29.83 in NNW 2.0 mph 6.0 mph 52% 0.00 in FEW
19:30 75.0 °F 56.7 °F 29.84 in NNW 2.0 mph 7.0 mph 53% 0.00 in FEW
19:45 74.5 °F 55.7 °F 29.84 in North 1.0 mph 4.0 mph 52% 0.00 in FEW
20:00 73.9 °F 56.2 °F 29.85 in Calm   2.0 mph 54% 0.00 in FEW
20:15 73.5 °F 56.3 °F 29.86 in Calm   4.0 mph 55% 0.00 in FEW
20:30 73.1 °F 56.0 °F 29.86 in Calm   2.0 mph 55% 0.00 in FEW
20:45 72.4 °F 56.3 °F 29.87 in Calm   2.0 mph 57% 0.00 in FEW
21:00 71.8 °F 56.2 °F 29.87 in Calm   1.0 mph 58% 0.00 in FEW
21:15 71.4 °F 56.8 °F 29.87 in Calm   1.0 mph 60% 0.00 in CLR
21:30 70.3 °F 57.5 °F 29.87 in Calm     64% 0.00 in CLR
21:45 68.8 °F 57.8 °F 29.87 in Calm     68% 0.00 in CLR
22:00 68.1 °F 57.9 °F 29.87 in Calm   1.0 mph 70% 0.00 in CLR
22:15 68.4 °F 57.9 °F 29.86 in Calm   1.0 mph 69% 0.00 in CLR
22:30 69.4 °F 57.6 °F 29.86 in Calm   4.0 mph 66% 0.00 in CLR
22:45 68.8 °F 57.8 °F 29.86 in Calm   1.0 mph 68% 0.00 in CLR
23:00 66.7 °F 57.8 °F 29.86 in Calm     73% 0.00 in CLR
23:15 65.2 °F 58.9 °F 29.87 in Calm     80% 0.00 in CLR
23:30 64.0 °F 58.0 °F 29.87 in Calm     81% 0.00 in CLR
23:45 63.2 °F 58.3 °F 29.88 in Calm     84% 0.00 in CLR
TarryTown NY Weather
Compliments of Weather Underground - 1.5 mb